Time;durP1;ratioP1;P1;durP2;ratioP2;P2;SDS_P1;SDS_P2;PMS_P1;PMS_P2;Temp;Humidity;BMP_temperature;BMP_pressure;BME280_temperature;BME280_humidity;BME280_pressure;Samples;Min_cycle;Max_cycle;Signal;HPM_P1;HPM_P2
2021/04/05 00:00:39;;;;;;;12.63;5.32;;;;;;;;;;5109601;28;20567;-60
2021/04/05 00:03:08;;;;;;;9.73;5.03;;;;;;;;;;5106844;28;20155;-60
2021/04/05 00:05:37;;;;;;;9.45;5.22;;;;;;;;;;5109176;28;21113;-60
2021/04/05 00:08:05;;;;;;;10.20;5.30;;;;;;;;;;5104752;28;20097;-60
2021/04/05 00:10:34;;;;;;;8.95;4.90;;;;;;;;;;5107306;28;20175;-60
2021/04/05 00:13:03;;;;;;;10.48;4.57;;;;;;;;;;5105617;28;20170;-60
2021/04/05 00:15:30;;;;;;;10.88;5.05;;;;;;;;;;5106775;28;20070;-60
2021/04/05 00:17:57;;;;;;;14.27;5.18;;;;;;;;;;5105284;28;20143;-60
2021/04/05 00:20:27;;;;;;;8.75;4.70;;;;;;;;;;5108586;28;20448;-60
2021/04/05 00:22:55;;;;;;;8.27;4.68;;;;;;;;;;5108511;28;20091;-60
2021/04/05 00:25:22;;;;;;;12.27;4.47;;;;;;;;;;5103877;28;20043;-60
2021/04/05 00:27:50;;;;;;;12.98;5.20;;;;;;;;;;5106592;28;20048;-60
2021/04/05 00:30:20;;;;;;;12.38;4.78;;;;;;;;;;5108365;28;20546;-60
2021/04/05 00:32:48;;;;;;;9.30;4.50;;;;;;;;;;5104110;28;20126;-60
2021/04/05 00:35:16;;;;;;;9.52;5.25;;;;;;;;;;5100167;28;20059;-60
2021/04/05 00:37:44;;;;;;;9.52;4.22;;;;;;;;;;5103523;28;20655;-60
2021/04/05 00:40:13;;;;;;;8.48;4.78;;;;;;;;;;5103752;28;20047;-60
2021/04/05 00:42:42;;;;;;;7.25;4.18;;;;;;;;;;5101661;28;20417;-60
2021/04/05 00:45:11;;;;;;;10.38;4.53;;;;;;;;;;5096166;28;20054;-60
2021/04/05 00:47:39;;;;;;;8.43;4.50;;;;;;;;;;5109099;28;20044;-60
2021/04/05 00:50:08;;;;;;;8.23;4.20;;;;;;;;;;5104761;28;20040;-60
2021/04/05 00:52:36;;;;;;;8.40;4.13;;;;;;;;;;5100220;28;20040;-60
2021/04/05 00:55:06;;;;;;;7.65;4.00;;;;;;;;;;5103771;28;20050;-60
2021/04/05 00:57:33;;;;;;;7.88;3.60;;;;;;;;;;5099336;28;20047;-60
2021/04/05 01:00:02;;;;;;;7.50;3.85;;;;;;;;;;5099714;28;20468;-60
2021/04/05 01:02:33;;;;;;;6.95;4.25;;;;;;;;;;5100758;28;20527;-60
2021/04/05 01:05:00;;;;;;;5.63;3.75;;;;;;;;;;5108219;22;20098;-63
2021/04/05 01:07:27;;;;;;;8.07;3.90;;;;;;;;;;5092756;28;20088;-62
2021/04/05 01:09:54;;;;;;;6.55;3.95;;;;;;;;;;5095881;28;20108;-62
2021/04/05 01:12:23;;;;;;;10.65;4.63;;;;;;;;;;5096858;28;20449;-62
2021/04/05 01:14:50;;;;;;;7.47;3.92;;;;;;;;;;5096947;28;20091;-62
2021/04/05 01:17:18;;;;;;;9.07;3.60;;;;;;;;;;5097204;28;20040;-62
2021/04/05 01:19:45;;;;;;;6.93;3.72;;;;;;;;;;5096812;28;20067;-62
2021/04/05 01:22:15;;;;;;;10.38;4.10;;;;;;;;;;5096747;28;20048;-62
2021/04/05 01:24:42;;;;;;;4.93;3.28;;;;;;;;;;5096647;28;20087;-62
2021/04/05 01:27:10;;;;;;;8.02;3.88;;;;;;;;;;5096724;28;20547;-62
2021/04/05 01:29:37;;;;;;;6.82;3.97;;;;;;;;;;5096388;28;20048;-62
2021/04/05 01:32:05;;;;;;;12.65;4.00;;;;;;;;;;5096329;28;20086;-62
2021/04/05 01:34:33;;;;;;;11.38;3.85;;;;;;;;;;5096331;28;20050;-62
2021/04/05 01:37:00;;;;;;;8.38;4.30;;;;;;;;;;5096591;28;20082;-62
2021/04/05 01:39:29;;;;;;;8.40;3.60;;;;;;;;;;5096775;28;20052;-62
2021/04/05 01:41:57;;;;;;;9.70;3.80;;;;;;;;;;5096699;28;20080;-62
2021/04/05 01:44:24;;;;;;;8.05;3.97;;;;;;;;;;5096005;28;20125;-62
2021/04/05 01:46:51;;;;;;;8.63;3.45;;;;;;;;;;5096072;28;20476;-62
2021/04/05 01:49:19;;;;;;;10.40;3.70;;;;;;;;;;5095983;28;20048;-63
2021/04/05 01:51:46;;;;;;;5.88;3.30;;;;;;;;;;5096252;28;20060;-62
2021/04/05 01:54:14;;;;;;;7.47;4.10;;;;;;;;;;5096984;28;20114;-62
2021/04/05 01:56:43;;;;;;;7.78;3.25;;;;;;;;;;5095864;28;20097;-62
2021/04/05 01:59:10;;;;;;;6.28;3.28;;;;;;;;;;5096096;28;20087;-62
2021/04/05 02:01:38;;;;;;;9.38;3.40;;;;;;;;;;5095803;28;20479;-62
2021/04/05 02:04:18;;;;;;;6.88;3.28;;;;;;;;;;3181582;28;10003238;-62
2021/04/05 02:06:45;;;;;;;3.75;2.75;;;;;;;;;;2622120;28;10001822;-63
2021/04/05 02:09:14;;;;;;;10.00;3.53;;;;;;;;;;5087808;28;20076;-63
2021/04/05 02:11:42;;;;;;;5.90;3.65;;;;;;;;;;5087757;28;20040;-62
2021/04/05 02:14:10;;;;;;;6.75;3.17;;;;;;;;;;5090232;28;20084;-63
2021/04/05 02:16:38;;;;;;;7.03;3.88;;;;;;;;;;5092127;28;20084;-62
2021/04/05 02:19:06;;;;;;;9.90;3.40;;;;;;;;;;5089124;28;20097;-62
2021/04/05 02:21:33;;;;;;;5.75;3.05;;;;;;;;;;5081167;28;20072;-62
2021/04/05 02:24:05;;;;;;;7.80;3.40;;;;;;;;;;5071820;28;20141;-62
2021/04/05 02:26:33;;;;;;;8.48;3.45;;;;;;;;;;5093538;28;20105;-62
2021/04/05 02:29:02;;;;;;;7.43;3.22;;;;;;;;;;5088248;28;20051;-62
2021/04/05 02:31:31;;;;;;;8.10;3.03;;;;;;;;;;5089256;28;20610;-62
2021/04/05 02:34:05;;;;;;;10.20;3.92;;;;;;;;;;5090047;28;20048;-62
2021/04/05 02:36:33;;;;;;;7.38;3.35;;;;;;;;;;5091676;28;20072;-62
2021/04/05 02:39:02;;;;;;;6.72;3.22;;;;;;;;;;5089753;28;20052;-62
2021/04/05 02:41:30;;;;;;;7.30;3.42;;;;;;;;;;5088815;28;20135;-62
2021/04/05 02:43:58;;;;;;;6.30;3.13;;;;;;;;;;5086736;28;20135;-62
2021/04/05 02:46:28;;;;;;;7.30;3.50;;;;;;;;;;5090371;28;20066;-62
2021/04/05 02:48:56;;;;;;;5.95;3.58;;;;;;;;;;5088125;28;20087;-62
2021/04/05 02:51:24;;;;;;;7.38;3.40;;;;;;;;;;5089666;28;20151;-62
2021/04/05 02:53:52;;;;;;;6.45;3.20;;;;;;;;;;5084543;28;20071;-62
2021/04/05 02:56:20;;;;;;;7.65;3.63;;;;;;;;;;5090247;28;20411;-62
2021/04/05 02:58:48;;;;;;;8.82;3.40;;;;;;;;;;5087566;28;20150;-62
2021/04/05 03:01:16;;;;;;;5.82;3.28;;;;;;;;;;5089485;28;20131;-62
2021/04/05 03:03:45;;;;;;;7.30;3.45;;;;;;;;;;5090457;28;20572;-62
2021/04/05 03:06:13;;;;;;;6.07;3.38;;;;;;;;;;5088979;28;20105;-62
2021/04/05 03:08:41;;;;;;;7.63;3.03;;;;;;;;;;5086074;28;20089;-63
2021/04/05 03:11:08;;;;;;;6.82;3.40;;;;;;;;;;5091179;28;20071;-62
2021/04/05 03:13:37;;;;;;;9.85;3.33;;;;;;;;;;5085635;28;20048;-62
2021/04/05 03:16:05;;;;;;;8.63;3.10;;;;;;;;;;5089832;28;20087;-62
2021/04/05 03:18:33;;;;;;;7.15;3.63;;;;;;;;;;5087897;28;20075;-62
2021/04/05 03:21:05;;;;;;;8.18;3.50;;;;;;;;;;5089222;28;20463;-62
2021/04/05 03:23:32;;;;;;;5.95;3.20;;;;;;;;;;5087980;28;20093;-62
2021/04/05 03:25:59;;;;;;;5.63;3.13;;;;;;;;;;5089522;28;20473;-62
2021/04/05 03:28:27;;;;;;;6.13;3.53;;;;;;;;;;5086882;28;20750;-62
2021/04/05 03:30:56;;;;;;;9.65;3.50;;;;;;;;;;5089589;28;20630;-63
2021/04/05 03:33:24;;;;;;;6.60;3.45;;;;;;;;;;5088128;28;20131;-62
2021/04/05 03:35:55;;;;;;;8.18;2.85;;;;;;;;;;5089069;28;20105;-63
2021/04/05 03:38:24;;;;;;;10.02;3.67;;;;;;;;;;5088122;28;20087;-62
2021/04/05 03:40:51;;;;;;;10.73;4.43;;;;;;;;;;5089404;28;20649;-62
2021/04/05 03:43:20;;;;;;;6.60;3.40;;;;;;;;;;5086125;28;20101;-62
2021/04/05 03:45:50;;;;;;;6.13;3.03;;;;;;;;;;5089994;28;20131;-62
2021/04/05 03:48:21;;;;;;;5.65;2.92;;;;;;;;;;5087192;28;20125;-62
2021/04/05 03:50:51;;;;;;;6.07;2.88;;;;;;;;;;5089484;28;20567;-62
2021/04/05 03:53:20;;;;;;;5.32;2.80;;;;;;;;;;5087617;28;20138;-62
2021/04/05 03:55:51;;;;;;;6.90;3.42;;;;;;;;;;5088524;28;20459;-62
2021/04/05 03:58:21;;;;;;;5.00;2.80;;;;;;;;;;5085951;28;20083;-62
2021/04/05 04:00:49;;;;;;;7.13;3.30;;;;;;;;;;5089069;28;20467;-62
2021/04/05 04:03:19;;;;;;;5.38;3.08;;;;;;;;;;5088901;28;20094;-62
2021/04/05 04:05:51;;;;;;;7.80;3.17;;;;;;;;;;5079666;28;20130;-62
2021/04/05 04:08:26;;;;;;;7.03;3.35;;;;;;;;;;5078089;28;20110;-62
2021/04/05 04:10:56;;;;;;;8.82;3.25;;;;;;;;;;5081505;28;20166;-62
2021/04/05 04:13:24;;;;;;;8.20;2.92;;;;;;;;;;5087995;28;20083;-62
2021/04/05 04:15:52;;;;;;;5.25;2.47;;;;;;;;;;5089065;28;20057;-62
2021/04/05 04:18:20;;;;;;;6.60;3.58;;;;;;;;;;5087398;28;20131;-62
2021/04/05 04:20:48;;;;;;;6.28;3.42;;;;;;;;;;5087769;28;20131;-62
2021/04/05 04:23:15;;;;;;;4.95;2.97;;;;;;;;;;5088170;28;20075;-62
2021/04/05 04:25:43;;;;;;;8.00;2.97;;;;;;;;;;5088523;28;20483;-63
2021/04/05 04:28:15;;;;;;;7.65;2.95;;;;;;;;;;5089105;28;20143;-62
2021/04/05 04:30:43;;;;;;;5.75;2.67;;;;;;;;;;5091581;28;20126;-62
2021/04/05 04:33:11;;;;;;;4.35;2.72;;;;;;;;;;5089809;28;20146;-62
2021/04/05 04:35:38;;;;;;;6.07;3.05;;;;;;;;;;5088333;28;20041;-62
2021/04/05 04:38:06;;;;;;;8.70;3.15;;;;;;;;;;5089139;28;20131;-62
2021/04/05 04:40:34;;;;;;;7.18;3.00;;;;;;;;;;5089460;28;20093;-62
2021/04/05 04:43:03;;;;;;;6.75;3.17;;;;;;;;;;5084389;28;20125;-62
2021/04/05 04:45:31;;;;;;;5.78;3.10;;;;;;;;;;5089817;28;20606;-62
2021/04/05 04:47:58;;;;;;;7.15;2.75;;;;;;;;;;5092735;28;20076;-62
2021/04/05 04:50:27;;;;;;;5.75;2.50;;;;;;;;;;5092076;28;20044;-62
2021/04/05 04:52:55;;;;;;;6.68;2.83;;;;;;;;;;5093378;28;20052;-62
2021/04/05 04:55:24;;;;;;;5.35;2.85;;;;;;;;;;5092823;28;20047;-62
2021/04/05 04:57:54;;;;;;;5.82;2.60;;;;;;;;;;5093116;28;20051;-62
2021/04/05 05:00:23;;;;;;;6.75;2.90;;;;;;;;;;5086808;28;20592;-62
2021/04/05 05:02:52;;;;;;;5.07;3.00;;;;;;;;;;5092146;28;20089;-62
2021/04/05 05:05:21;;;;;;;6.32;3.00;;;;;;;;;;5090816;28;20131;-62
2021/04/05 05:07:48;;;;;;;7.38;2.83;;;;;;;;;;5093708;28;20072;-62
2021/04/05 05:10:17;;;;;;;6.95;3.08;;;;;;;;;;5092160;28;20123;-62
2021/04/05 05:12:45;;;;;;;4.40;2.42;;;;;;;;;;5082906;28;20130;-62
2021/04/05 05:15:14;;;;;;;9.23;2.65;;;;;;;;;;5090295;28;20060;-62
2021/04/05 05:17:42;;;;;;;6.90;3.03;;;;;;;;;;5092685;28;20119;-63
2021/04/05 05:20:12;;;;;;;6.97;2.55;;;;;;;;;;5092365;28;20076;-62
2021/04/05 05:22:43;;;;;;;8.35;2.80;;;;;;;;;;5099630;28;20079;-62
2021/04/05 05:25:11;;;;;;;7.10;3.30;;;;;;;;;;5090230;28;20509;-62
2021/04/05 05:27:40;;;;;;;7.13;2.80;;;;;;;;;;5088769;28;20083;-62
2021/04/05 05:30:09;;;;;;;5.15;2.80;;;;;;;;;;5091641;28;20044;-62
2021/04/05 05:32:37;;;;;;;8.55;2.80;;;;;;;;;;5091336;28;20098;-62
2021/04/05 05:35:08;;;;;;;7.95;2.90;;;;;;;;;;5082488;28;20450;-62
2021/04/05 05:37:36;;;;;;;5.65;3.00;;;;;;;;;;5088641;28;20047;-63
2021/04/05 05:40:05;;;;;;;5.32;2.92;;;;;;;;;;5088169;28;20127;-61
2021/04/05 05:42:37;;;;;;;6.03;2.90;;;;;;;;;;5090694;28;20079;-61
2021/04/05 05:45:06;;;;;;;5.55;2.25;;;;;;;;;;5089608;28;20128;-60
2021/04/05 05:47:38;;;;;;;7.47;3.00;;;;;;;;;;5084866;28;20044;-61
2021/04/05 05:50:07;;;;;;;7.57;3.25;;;;;;;;;;5084846;28;20304;-61
2021/04/05 05:52:41;;;;;;;7.30;3.03;;;;;;;;;;5089104;28;20136;-61
2021/04/05 05:55:36;;;;;;;7.53;2.72;;;;;;;;;;5088116;28;20044;-61
2021/04/05 05:58:06;;;;;;;6.40;2.60;;;;;;;;;;5087654;28;20135;-61
2021/04/05 06:00:35;;;;;;;8.10;3.03;;;;;;;;;;5086878;28;20044;-61
2021/04/05 06:03:09;;;;;;;8.90;2.80;;;;;;;;;;5091535;28;20051;-62
2021/04/05 06:05:43;;;;;;;4.65;2.53;;;;;;;;;;5090799;28;20407;-61
2021/04/05 06:08:30;;;;;;;7.10;2.70;;;;;;;;;;5088554;28;20036;-62
2021/04/05 06:11:01;;;;;;;5.32;3.28;;;;;;;;;;5084893;28;20047;-62
2021/04/05 06:13:36;;;;;;;5.63;2.72;;;;;;;;;;5089436;28;20127;-61
2021/04/05 06:16:13;;;;;;;6.60;2.88;;;;;;;;;;5089585;28;20044;-61
2021/04/05 06:18:42;;;;;;;5.93;3.08;;;;;;;;;;5085017;28;20071;-62
2021/04/05 06:21:17;;;;;;;6.65;2.58;;;;;;;;;;5079951;28;20048;-62
2021/04/05 06:23:48;;;;;;;6.20;2.67;;;;;;;;;;5084934;28;20087;-62
2021/04/05 06:26:20;;;;;;;6.28;2.88;;;;;;;;;;5087284;28;20452;-62
2021/04/05 06:28:54;;;;;;;5.50;2.50;;;;;;;;;;5084330;28;20056;-62
2021/04/05 06:31:46;;;;;;;5.40;2.75;;;;;;;;;;5085420;28;20044;-62
2021/04/05 06:34:23;;;;;;;6.57;3.10;;;;;;;;;;5077862;28;20123;-62
2021/04/05 06:36:58;;;;;;;5.15;2.42;;;;;;;;;;5081270;28;20079;-62
2021/04/05 06:39:28;;;;;;;7.18;2.42;;;;;;;;;;5077564;28;20063;-62
2021/04/05 06:42:10;;;;;;;5.45;2.60;;;;;;;;;;5086138;28;20051;-62
2021/04/05 06:44:46;;;;;;;6.50;2.67;;;;;;;;;;5099290;28;20424;-62
2021/04/05 06:47:26;;;;;;;8.02;2.95;;;;;;;;;;5085701;28;20066;-62
2021/04/05 06:50:05;;;;;;;5.80;2.80;;;;;;;;;;5085277;28;20051;-62
2021/04/05 06:52:39;;;;;;;8.43;2.90;;;;;;;;;;5086616;28;20089;-62
2021/04/05 06:55:30;;;;;;;7.88;2.85;;;;;;;;;;5085171;28;20395;-62
2021/04/05 06:58:07;;;;;;;6.03;2.78;;;;;;;;;;5081885;28;20209;-62
2021/04/05 07:00:38;;;;;;;5.28;2.42;;;;;;;;;;5083784;28;20090;-62
2021/04/05 07:03:28;;;;;;;5.25;2.75;;;;;;;;;;5082824;28;20449;-63
2021/04/05 07:06:06;;;;;;;5.45;2.95;;;;;;;;;;5087762;28;20091;-61
2021/04/05 07:08:37;;;;;;;7.55;3.05;;;;;;;;;;5086021;28;20410;-62
2021/04/05 07:11:13;;;;;;;5.03;2.67;;;;;;;;;;5086390;28;20353;-62
2021/04/05 07:13:50;;;;;;;7.40;2.95;;;;;;;;;;5078908;28;20163;-62
2021/04/05 07:16:23;;;;;;;6.38;2.85;;;;;;;;;;5084647;28;20475;-62
2021/04/05 07:18:54;;;;;;;5.95;2.88;;;;;;;;;;5082858;28;20075;-62
2021/04/05 07:21:29;;;;;;;7.90;3.42;;;;;;;;;;5085673;28;20076;-62
2021/04/05 07:24:07;;;;;;;6.55;2.75;;;;;;;;;;5085623;28;20468;-62
2021/04/05 07:26:38;;;;;;;6.13;2.80;;;;;;;;;;5086113;28;20044;-62
2021/04/05 07:29:10;;;;;;;5.22;2.47;;;;;;;;;;5081817;28;20659;-62
2021/04/05 07:31:41;;;;;;;8.57;2.92;;;;;;;;;;5086479;28;20079;-61
2021/04/05 07:34:18;;;;;;;7.05;3.10;;;;;;;;;;5085376;28;20132;-62
2021/04/05 07:36:49;;;;;;;7.63;3.42;;;;;;;;;;5085778;28;20614;-62
2021/04/05 07:39:22;;;;;;;5.63;2.95;;;;;;;;;;5084486;28;20048;-61
2021/04/05 07:41:54;;;;;;;6.80;3.30;;;;;;;;;;5086201;28;20110;-62
2021/04/05 07:44:29;;;;;;;4.72;2.70;;;;;;;;;;5084020;28;20060;-62
2021/04/05 07:47:01;;;;;;;8.38;2.95;;;;;;;;;;5085742;28;20055;-62
2021/04/05 07:49:43;;;;;;;6.05;2.85;;;;;;;;;;5085847;28;20535;-62
2021/04/05 07:52:18;;;;;;;5.40;2.90;;;;;;;;;;5087466;28;20131;-62
2021/04/05 07:54:46;;;;;;;10.23;3.20;;;;;;;;;;5082703;28;20056;-62
2021/04/05 07:57:21;;;;;;;6.05;3.03;;;;;;;;;;5084179;28;20075;-62
2021/04/05 07:59:53;;;;;;;7.38;2.85;;;;;;;;;;5083668;28;20428;-62
2021/04/05 08:02:25;;;;;;;8.20;2.90;;;;;;;;;;5086751;28;20059;-62
2021/04/05 08:04:55;;;;;;;5.32;2.67;;;;;;;;;;5082917;28;20344;-62
2021/04/05 08:07:30;;;;;;;8.55;3.25;;;;;;;;;;5081599;28;20509;-62
2021/04/05 08:10:03;;;;;;;10.57;3.40;;;;;;;;;;5083089;28;20450;-62
2021/04/05 08:12:35;;;;;;;10.15;3.35;;;;;;;;;;5089289;28;20087;-62
2021/04/05 08:15:09;;;;;;;9.75;3.10;;;;;;;;;;5084486;28;20755;-62
2021/04/05 08:17:44;;;;;;;5.78;2.63;;;;;;;;;;5082824;28;20115;-62
2021/04/05 08:20:11;;;;;;;;;;;;;;;;;;5087780;28;20498;-62
2021/04/05 08:22:46;;;;;;;5.68;2.83;;;;;;;;;;5089641;28;20444;-62
2021/04/05 08:25:21;;;;;;;10.70;2.72;;;;;;;;;;5084117;28;20412;-62
2021/04/05 08:27:53;;;;;;;5.38;2.70;;;;;;;;;;5082685;28;20048;-62
2021/04/05 08:30:23;;;;;;;7.28;2.80;;;;;;;;;;5085627;28;20506;-62
2021/04/05 08:32:58;;;;;;;5.53;2.45;;;;;;;;;;5080304;28;20146;-62
2021/04/05 08:35:30;;;;;;;8.73;2.67;;;;;;;;;;5072895;28;20044;-62
2021/04/05 08:38:02;;;;;;;3.42;2.13;;;;;;;;;;5083700;28;20118;-62
2021/04/05 08:40:32;;;;;;;8.57;2.58;;;;;;;;;;5085664;28;20113;-61
2021/04/05 08:43:07;;;;;;;7.93;2.80;;;;;;;;;;5087964;28;20538;-61
2021/04/05 08:45:34;;;;;;;;;;;;;;;;;;5082742;28;20422;-62
2021/04/05 08:48:04;;;;;;;5.22;2.15;;;;;;;;;;5085553;28;19935;-62
2021/04/05 08:50:35;;;;;;;7.13;2.90;;;;;;;;;;5084583;28;20167;-62
2021/04/05 08:53:03;;;;;;;7.40;2.95;;;;;;;;;;5088901;28;20398;-62
2021/04/05 08:55:33;;;;;;;5.10;2.22;;;;;;;;;;5082318;28;20048;-62
2021/04/05 08:58:06;;;;;;;6.50;2.28;;;;;;;;;;5091385;28;20339;-63
2021/04/05 09:00:36;;;;;;;5.28;2.42;;;;;;;;;;5089448;28;20047;-62
2021/04/05 09:03:07;;;;;;;6.50;2.35;;;;;;;;;;5085803;28;20048;-63
2021/04/05 09:05:37;;;;;;;2.83;2.03;;;;;;;;;;5086679;28;20519;-62
2021/04/05 09:08:05;;;;;;;4.28;2.05;;;;;;;;;;5085788;28;20152;-63
2021/04/05 09:10:34;;;;;;;7.68;2.42;;;;;;;;;;5086788;28;20043;-62
2021/04/05 09:13:07;;;;;;;7.97;1.75;;;;;;;;;;5088125;28;20454;-62
2021/04/05 09:15:56;;;;;;;8.20;2.15;;;;;;;;;;5089839;28;20126;-63
2021/04/05 09:18:33;;;;;;;5.30;2.13;;;;;;;;;;5070035;28;20052;-60
2021/04/05 09:21:11;;;;;;;5.15;1.98;;;;;;;;;;5086210;28;20043;-61
2021/04/05 09:24:09;;;;;;;4.72;2.22;;;;;;;;;;5086970;28;20143;-63
2021/04/05 09:26:55;;;;;;;7.00;2.13;;;;;;;;;;5085184;28;20044;-62
2021/04/05 09:29:34;;;;;;;4.55;1.67;;;;;;;;;;5084386;28;20139;-63
2021/04/05 09:32:09;;;;;;;9.90;2.60;;;;;;;;;;5083224;28;20039;-62
2021/04/05 09:34:55;;;;;;;7.57;1.95;;;;;;;;;;5094471;28;20784;-62
2021/04/05 09:37:41;;;;;;;6.90;2.00;;;;;;;;;;5083929;28;20044;-62
2021/04/05 09:40:25;;;;;;;3.92;2.17;;;;;;;;;;5087518;28;20047;-62
2021/04/05 09:43:04;;;;;;;6.38;2.03;;;;;;;;;;5086136;28;20156;-62
2021/04/05 09:45:37;;;;;;;7.15;1.83;;;;;;;;;;5086623;28;20138;-63
2021/04/05 09:48:12;;;;;;;6.38;2.10;;;;;;;;;;5085214;28;20113;-62
2021/04/05 09:50:49;;;;;;;10.35;2.25;;;;;;;;;;5091184;28;20480;-63
2021/04/05 09:53:35;;;;;;;5.07;2.00;;;;;;;;;;5088263;28;20562;-62
2021/04/05 09:56:06;;;;;;;7.90;1.90;;;;;;;;;;5079151;28;20130;-63
2021/04/05 09:58:36;;;;;;;8.73;2.00;;;;;;;;;;5095599;28;20130;-63
2021/04/05 10:01:08;;;;;;;7.72;2.17;;;;;;;;;;5095563;28;20052;-62
2021/04/05 10:03:39;;;;;;;3.97;1.73;;;;;;;;;;5090064;28;20203;-62
2021/04/05 10:06:08;;;;;;;6.53;1.90;;;;;;;;;;5091565;28;20052;-62
2021/04/05 10:08:37;;;;;;;10.65;1.90;;;;;;;;;;5087930;28;20098;-62
2021/04/05 10:11:07;;;;;;;4.28;1.90;;;;;;;;;;5088661;28;20040;-62
2021/04/05 10:13:36;;;;;;;5.97;1.80;;;;;;;;;;5089890;28;20124;-62
2021/04/05 10:16:15;;;;;;;6.80;1.98;;;;;;;;;;5088785;28;20074;-62
2021/04/05 10:18:48;;;;;;;5.68;1.88;;;;;;;;;;5089538;28;20040;-62
2021/04/05 10:21:16;;;;;;;5.75;1.80;;;;;;;;;;5089695;28;20043;-62
2021/04/05 10:23:44;;;;;;;6.22;1.88;;;;;;;;;;5090505;28;20056;-62
2021/04/05 10:26:13;;;;;;;4.78;1.63;;;;;;;;;;5093496;28;20108;-62
2021/04/05 10:28:42;;;;;;;2.47;1.60;;;;;;;;;;5087488;28;20052;-62
2021/04/05 10:31:15;;;;;;;6.32;1.80;;;;;;;;;;5084144;28;20582;-62
2021/04/05 10:33:46;;;;;;;4.32;1.63;;;;;;;;;;5076205;28;20043;-62
2021/04/05 10:36:17;;;;;;;6.85;1.80;;;;;;;;;;5088509;28;20044;-62
2021/04/05 10:38:44;;;;;;;3.42;1.85;;;;;;;;;;5085848;28;20059;-62
2021/04/05 10:41:13;;;;;;;3.83;1.85;;;;;;;;;;5093144;28;20035;-62
2021/04/05 10:43:42;;;;;;;9.93;1.98;;;;;;;;;;5089783;28;20547;-62
2021/04/05 10:46:14;;;;;;;2.80;1.83;;;;;;;;;;5090388;28;20113;-62
2021/04/05 10:48:42;;;;;;;4.50;1.90;;;;;;;;;;5088669;28;20491;-62
2021/04/05 10:51:14;;;;;;;5.20;2.08;;;;;;;;;;5089415;28;20387;-62
2021/04/05 10:53:43;;;;;;;4.68;2.05;;;;;;;;;;5097180;28;20539;-62
2021/04/05 10:56:12;;;;;;;5.63;1.63;;;;;;;;;;5098545;28;20130;-62
2021/04/05 10:58:45;;;;;;;7.18;1.70;;;;;;;;;;5089445;28;20123;-62
2021/04/05 11:01:13;;;;;;;6.40;1.88;;;;;;;;;;5089508;28;20115;-62
2021/04/05 11:03:43;;;;;;;7.75;2.85;;;;;;;;;;5088927;28;20142;-62
2021/04/05 11:06:13;;;;;;;7.55;2.50;;;;;;;;;;5090167;28;20500;-61
2021/04/05 11:08:41;;;;;;;4.40;2.40;;;;;;;;;;5089000;28;20464;-62
2021/04/05 11:11:11;;;;;;;8.88;2.58;;;;;;;;;;5089584;28;20466;-61
2021/04/05 11:13:40;;;;;;;5.70;2.15;;;;;;;;;;5089875;28;20075;-61
2021/04/05 11:16:11;;;;;;;5.57;2.67;;;;;;;;;;5088155;28;20062;-61
2021/04/05 11:18:46;;;;;;;7.93;2.35;;;;;;;;;;5084419;28;20048;-61
2021/04/05 11:21:14;;;;;;;4.18;1.90;;;;;;;;;;5090211;28;20080;-62
2021/04/05 11:23:42;;;;;;;6.07;2.50;;;;;;;;;;5090553;28;20491;-62
2021/04/05 11:26:10;;;;;;;5.63;2.70;;;;;;;;;;5088506;28;20115;-62
2021/04/05 11:28:39;;;;;;;11.77;2.40;;;;;;;;;;5086951;28;20043;-62
2021/04/05 11:31:10;;;;;;;4.43;2.20;;;;;;;;;;5090270;28;20074;-62
2021/04/05 11:33:41;;;;;;;6.97;2.20;;;;;;;;;;5090076;28;20300;-62
2021/04/05 11:36:09;;;;;;;7.38;2.65;;;;;;;;;;5088598;28;20178;-62
2021/04/05 11:38:39;;;;;;;5.60;2.25;;;;;;;;;;5086728;28;20135;-62
2021/04/05 11:41:07;;;;;;;4.93;2.00;;;;;;;;;;5087604;28;20463;-63
2021/04/05 11:43:37;;;;;;;4.55;2.80;;;;;;;;;;5094702;28;20136;-62
2021/04/05 11:46:07;;;;;;;4.50;2.35;;;;;;;;;;5088489;28;20411;-62
2021/04/05 11:48:34;;;;;;;7.28;2.50;;;;;;;;;;5095875;28;20402;-62
2021/04/05 11:51:03;;;;;;;6.60;2.20;;;;;;;;;;5088899;28;20048;-62
2021/04/05 11:53:33;;;;;;;4.07;2.25;;;;;;;;;;5087133;28;20480;-63
2021/04/05 11:56:12;;;;;;;4.28;2.05;;;;;;;;;;5086928;28;20040;-63
2021/04/05 11:58:40;;;;;;;8.82;2.65;;;;;;;;;;5088307;28;20931;-62
2021/04/05 12:01:12;;;;;;;8.18;2.67;;;;;;;;;;5091494;28;20214;-62
2021/04/05 12:03:43;;;;;;;6.68;2.30;;;;;;;;;;5088662;28;20137;-62
2021/04/05 12:06:12;;;;;;;6.55;2.28;;;;;;;;;;5088367;28;20535;-62
2021/04/05 12:08:46;;;;;;;4.85;2.20;;;;;;;;;;5086365;28;20105;-63
2021/04/05 12:11:16;;;;;;;5.82;2.40;;;;;;;;;;5088770;28;20083;-63
2021/04/05 12:13:44;;;;;;;6.53;2.17;;;;;;;;;;5086970;28;20126;-62
2021/04/05 12:16:13;;;;;;;6.75;2.13;;;;;;;;;;5085638;28;20131;-62
2021/04/05 12:18:42;;;;;;;6.45;2.25;;;;;;;;;;5086530;28;20154;-62
2021/04/05 12:21:12;;;;;;;10.60;2.10;;;;;;;;;;5091721;28;20040;-63
2021/04/05 12:23:40;;;;;;;4.00;2.33;;;;;;;;;;5101824;28;20097;-63
2021/04/05 12:26:08;;;;;;;5.57;2.20;;;;;;;;;;5088434;28;20082;-63
2021/04/05 12:28:38;;;;;;;5.07;2.10;;;;;;;;;;5081487;28;20559;-63
2021/04/05 12:31:07;;;;;;;5.53;2.15;;;;;;;;;;5092523;28;20054;-63
2021/04/05 12:33:57;;;;;;;5.03;1.95;;;;;;;;;;5089284;28;20107;-63
2021/04/05 12:36:31;;;;;;;9.60;2.10;;;;;;;;;;5087799;28;20128;-63
2021/04/05 12:39:00;;;;;;;4.53;1.97;;;;;;;;;;5086480;28;20549;-63
2021/04/05 12:41:33;;;;;;;7.13;2.00;;;;;;;;;;5076293;28;20297;-63
2021/04/05 12:44:02;;;;;;;3.28;2.05;;;;;;;;;;5086766;28;20052;-63
2021/04/05 12:46:30;;;;;;;5.28;1.90;;;;;;;;;;5087995;28;20052;-63
2021/04/05 12:49:00;;;;;;;4.72;1.80;;;;;;;;;;5087104;28;20549;-63
2021/04/05 12:51:28;;;;;;;5.88;1.77;;;;;;;;;;5081891;28;20067;-62
2021/04/05 12:53:59;;;;;;;3.63;1.55;;;;;;;;;;5090798;28;20048;-63
2021/04/05 12:56:28;;;;;;;6.30;1.80;;;;;;;;;;5087481;28;20540;-63
2021/04/05 12:58:55;;;;;;;3.58;1.80;;;;;;;;;;5082888;28;20086;-63
2021/04/05 13:01:27;;;;;;;10.13;2.33;;;;;;;;;;5087352;28;20117;-63
2021/04/05 13:03:54;;;;;;;8.40;1.80;;;;;;;;;;5087196;28;20903;-63
2021/04/05 13:06:23;;;;;;;7.65;1.77;;;;;;;;;;5090459;28;20083;-63
2021/04/05 13:08:53;;;;;;;4.30;1.77;;;;;;;;;;5089762;28;20056;-61
2021/04/05 13:11:22;;;;;;;5.75;2.60;;;;;;;;;;5089923;28;20540;-61
2021/04/05 13:13:51;;;;;;;4.47;1.38;;;;;;;;;;5091096;28;20561;-61
2021/04/05 13:16:21;;;;;;;7.35;1.73;;;;;;;;;;5089056;28;20052;-61
2021/04/05 13:19:08;;;;;;;7.38;1.95;;;;;;;;;;5086899;28;20743;-62
2021/04/05 13:21:37;;;;;;;5.38;1.55;;;;;;;;;;5083147;28;20040;-64
2021/04/05 13:24:07;;;;;;;8.00;1.55;;;;;;;;;;5091181;28;20044;-61
2021/04/05 13:26:37;;;;;;;5.13;1.75;;;;;;;;;;5089709;28;20083;-61
2021/04/05 13:29:06;;;;;;;4.22;1.42;;;;;;;;;;5087700;28;20429;-61
2021/04/05 13:31:34;;;;;;;2.85;1.40;;;;;;;;;;5090591;28;20071;-61
2021/04/05 13:34:03;;;;;;;11.00;1.73;;;;;;;;;;5088982;28;20044;-62
2021/04/05 13:36:32;;;;;;;5.40;1.50;;;;;;;;;;5086395;28;20378;-61
2021/04/05 13:39:01;;;;;;;7.45;1.77;;;;;;;;;;5087260;28;20051;-61
2021/04/05 13:41:31;;;;;;;7.60;1.75;;;;;;;;;;5088557;28;20079;-62
2021/04/05 13:44:00;;;;;;;6.95;1.15;;;;;;;;;;5087713;28;20056;-62
2021/04/05 13:46:28;;;;;;;5.70;1.75;;;;;;;;;;5088177;28;20044;-62
2021/04/05 13:49:08;;;;;;;4.90;1.85;;;;;;;;;;5086988;28;20658;-62
2021/04/05 13:51:37;;;;;;;3.35;1.58;;;;;;;;;;5087154;28;20552;-63
2021/04/05 13:54:06;;;;;;;4.57;1.55;;;;;;;;;;5095642;28;20097;-62
2021/04/05 13:56:36;;;;;;;6.20;1.73;;;;;;;;;;5088101;28;20054;-61
2021/04/05 13:59:06;;;;;;;3.97;1.50;;;;;;;;;;5087894;28;20051;-62
2021/04/05 14:01:34;;;;;;;3.35;1.60;;;;;;;;;;5086748;28;20051;-63
2021/04/05 14:04:02;;;;;;;8.10;1.98;;;;;;;;;;5084353;28;20138;-62
2021/04/05 14:06:33;;;;;;;7.80;2.00;;;;;;;;;;5090554;28;20056;-63
2021/04/05 14:09:02;;;;;;;7.90;2.08;;;;;;;;;;5070248;28;20060;-63
2021/04/05 14:11:30;;;;;;;7.93;2.75;;;;;;;;;;5085781;28;20055;-63
2021/04/05 14:13:58;;;;;;;3.88;2.22;;;;;;;;;;5083723;28;20086;-63
2021/04/05 14:16:28;;;;;;;6.28;2.10;;;;;;;;;;5086370;28;20113;-63
2021/04/05 14:19:01;;;;;;;6.95;2.13;;;;;;;;;;5089789;28;20490;-63
2021/04/05 14:21:30;;;;;;;7.60;2.15;;;;;;;;;;5092520;28;20048;-63
2021/04/05 14:24:04;;;;;;;3.78;2.20;;;;;;;;;;5090088;28;20083;-63
2021/04/05 14:26:36;;;;;;;7.40;2.60;;;;;;;;;;5089255;28;20145;-63
2021/04/05 14:29:04;;;;;;;7.00;2.22;;;;;;;;;;5088171;28;20064;-63
2021/04/05 14:31:34;;;;;;;8.77;2.42;;;;;;;;;;5090193;28;20409;-63
2021/04/05 14:34:04;;;;;;;5.93;2.40;;;;;;;;;;5088472;28;20048;-62
2021/04/05 14:36:33;;;;;;;3.95;2.50;;;;;;;;;;5089857;28;20044;-63
2021/04/05 14:39:05;;;;;;;5.10;2.60;;;;;;;;;;5088089;28;20048;-62
2021/04/05 14:41:35;;;;;;;7.90;2.60;;;;;;;;;;5087944;28;20098;-62
2021/04/05 14:44:07;;;;;;;6.78;2.38;;;;;;;;;;5089481;28;20067;-63
2021/04/05 14:46:40;;;;;;;8.32;3.08;;;;;;;;;;5084913;28;20132;-63
2021/04/05 14:49:10;;;;;;;9.63;2.10;;;;;;;;;;5085966;28;20051;-62
2021/04/05 14:51:40;;;;;;;5.43;2.72;;;;;;;;;;5080690;28;20142;-63
2021/04/05 14:54:09;;;;;;;5.82;2.30;;;;;;;;;;5086688;28;20293;-63
2021/04/05 14:56:38;;;;;;;6.43;2.35;;;;;;;;;;5075196;28;20040;-63
2021/04/05 14:59:08;;;;;;;7.38;2.08;;;;;;;;;;5081490;28;20068;-63
2021/04/05 15:01:37;;;;;;;7.45;2.45;;;;;;;;;;5084640;28;20076;-63
2021/04/05 15:04:06;;;;;;;9.07;2.67;;;;;;;;;;5086551;28;20059;-63